sensor_id;sensor_type;location;lat;lon;timestamp;P1;durP1;ratioP1;P2;durP2;ratioP2
6983;SDS011;3532;51.118;7.210;2023-04-24T00:00:00;1.20;;;1.10;;
6983;SDS011;3532;51.118;7.210;2023-04-24T00:02:25;3.10;;;1.50;;
6983;SDS011;3532;51.118;7.210;2023-04-24T00:04:51;1.50;;;1.40;;
6983;SDS011;3532;51.118;7.210;2023-04-24T00:07:16;1.27;;;1.17;;
6983;SDS011;3532;51.118;7.210;2023-04-24T00:09:42;1.50;;;1.40;;
6983;SDS011;3532;51.118;7.210;2023-04-24T00:12:08;1.50;;;1.40;;
6983;SDS011;3532;51.118;7.210;2023-04-24T00:14:34;1.83;;;1.30;;
6983;SDS011;3532;51.118;7.210;2023-04-24T00:17:00;1.50;;;1.40;;
6983;SDS011;3532;51.118;7.210;2023-04-24T00:19:26;1.50;;;1.40;;
6983;SDS011;3532;51.118;7.210;2023-04-24T00:21:51;3.00;;;1.50;;
6983;SDS011;3532;51.118;7.210;2023-04-24T00:24:17;1.27;;;1.13;;
6983;SDS011;3532;51.118;7.210;2023-04-24T00:26:43;1.57;;;1.47;;
6983;SDS011;3532;51.118;7.210;2023-04-24T00:29:08;1.60;;;1.47;;
6983;SDS011;3532;51.118;7.210;2023-04-24T00:31:33;1.37;;;1.27;;
6983;SDS011;3532;51.118;7.210;2023-04-24T00:34:02;1.53;;;1.40;;
6983;SDS011;3532;51.118;7.210;2023-04-24T00:36:28;1.47;;;1.37;;
6983;SDS011;3532;51.118;7.210;2023-04-24T00:38:53;1.53;;;1.30;;
6983;SDS011;3532;51.118;7.210;2023-04-24T00:41:19;1.43;;;1.33;;
6983;SDS011;3532;51.118;7.210;2023-04-24T00:43:45;1.97;;;1.50;;
6983;SDS011;3532;51.118;7.210;2023-04-24T00:46:11;1.57;;;1.43;;
6983;SDS011;3532;51.118;7.210;2023-04-24T00:48:38;2.40;;;1.90;;
6983;SDS011;3532;51.118;7.210;2023-04-24T00:51:04;1.60;;;1.50;;
6983;SDS011;3532;51.118;7.210;2023-04-24T00:53:29;1.80;;;1.40;;
6983;SDS011;3532;51.118;7.210;2023-04-24T00:55:55;1.50;;;1.40;;
6983;SDS011;3532;51.118;7.210;2023-04-24T00:58:20;1.53;;;1.40;;
6983;SDS011;3532;51.118;7.210;2023-04-24T01:00:46;2.10;;;1.53;;
6983;SDS011;3532;51.118;7.210;2023-04-24T01:03:12;3.00;;;1.70;;
6983;SDS011;3532;51.118;7.210;2023-04-24T01:05:39;2.70;;;1.60;;
6983;SDS011;3532;51.118;7.210;2023-04-24T01:08:04;1.53;;;1.43;;
6983;SDS011;3532;51.118;7.210;2023-04-24T01:10:30;1.60;;;1.50;;
6983;SDS011;3532;51.118;7.210;2023-04-24T01:12:56;1.60;;;1.50;;
6983;SDS011;3532;51.118;7.210;2023-04-24T01:15:23;1.70;;;1.60;;
6983;SDS011;3532;51.118;7.210;2023-04-24T01:17:48;2.37;;;2.03;;
6983;SDS011;3532;51.118;7.210;2023-04-24T01:20:13;2.97;;;2.00;;
6983;SDS011;3532;51.118;7.210;2023-04-24T01:22:39;2.90;;;2.03;;
6983;SDS011;3532;51.118;7.210;2023-04-24T01:25:05;2.93;;;1.77;;
6983;SDS011;3532;51.118;7.210;2023-04-24T01:27:31;1.50;;;1.40;;
6983;SDS011;3532;51.118;7.210;2023-04-24T01:29:56;2.00;;;1.80;;
6983;SDS011;3532;51.118;7.210;2023-04-24T01:32:22;2.10;;;1.77;;
6983;SDS011;3532;51.118;7.210;2023-04-24T01:34:48;1.97;;;1.77;;
6983;SDS011;3532;51.118;7.210;2023-04-24T01:37:14;2.00;;;1.60;;
6983;SDS011;3532;51.118;7.210;2023-04-24T01:39:40;2.67;;;2.00;;
6983;SDS011;3532;51.118;7.210;2023-04-24T01:42:05;2.00;;;1.73;;
6983;SDS011;3532;51.118;7.210;2023-04-24T01:44:32;2.60;;;1.97;;
6983;SDS011;3532;51.118;7.210;2023-04-24T01:46:58;2.13;;;1.93;;
6983;SDS011;3532;51.118;7.210;2023-04-24T01:49:25;1.93;;;1.73;;
6983;SDS011;3532;51.118;7.210;2023-04-24T01:51:51;2.67;;;2.00;;
6983;SDS011;3532;51.118;7.210;2023-04-24T01:54:16;2.03;;;1.80;;
6983;SDS011;3532;51.118;7.210;2023-04-24T01:56:42;2.47;;;2.00;;
6983;SDS011;3532;51.118;7.210;2023-04-24T01:59:08;4.20;;;2.40;;
6983;SDS011;3532;51.118;7.210;2023-04-24T02:01:35;3.03;;;2.17;;
6983;SDS011;3532;51.118;7.210;2023-04-24T02:04:03;3.10;;;2.80;;
6983;SDS011;3532;51.118;7.210;2023-04-24T02:06:29;2.90;;;2.27;;
6983;SDS011;3532;51.118;7.210;2023-04-24T02:08:56;2.17;;;2.00;;
6983;SDS011;3532;51.118;7.210;2023-04-24T02:11:22;5.60;;;2.30;;
6983;SDS011;3532;51.118;7.210;2023-04-24T02:13:47;2.77;;;2.57;;
6983;SDS011;3532;51.118;7.210;2023-04-24T02:16:12;3.20;;;2.87;;
6983;SDS011;3532;51.118;7.210;2023-04-24T02:18:38;3.53;;;3.23;;
6983;SDS011;3532;51.118;7.210;2023-04-24T02:21:03;3.57;;;3.00;;
6983;SDS011;3532;51.118;7.210;2023-04-24T02:23:28;4.97;;;3.10;;
6983;SDS011;3532;51.118;7.210;2023-04-24T02:25:53;5.67;;;3.27;;
6983;SDS011;3532;51.118;7.210;2023-04-24T02:28:19;4.27;;;3.87;;
6983;SDS011;3532;51.118;7.210;2023-04-24T02:30:44;3.83;;;3.50;;
6983;SDS011;3532;51.118;7.210;2023-04-24T02:33:10;4.50;;;3.80;;
6983;SDS011;3532;51.118;7.210;2023-04-24T02:35:36;4.13;;;3.27;;
6983;SDS011;3532;51.118;7.210;2023-04-24T02:38:01;5.10;;;3.67;;
6983;SDS011;3532;51.118;7.210;2023-04-24T02:40:28;4.40;;;3.97;;
6983;SDS011;3532;51.118;7.210;2023-04-24T02:42:53;4.87;;;4.30;;
6983;SDS011;3532;51.118;7.210;2023-04-24T02:45:18;5.37;;;4.80;;
6983;SDS011;3532;51.118;7.210;2023-04-24T02:47:44;6.00;;;5.20;;
6983;SDS011;3532;51.118;7.210;2023-04-24T02:50:09;7.20;;;5.13;;
6983;SDS011;3532;51.118;7.210;2023-04-24T02:52:35;9.33;;;6.53;;
6983;SDS011;3532;51.118;7.210;2023-04-24T02:55:00;6.70;;;5.30;;
6983;SDS011;3532;51.118;7.210;2023-04-24T02:57:25;7.27;;;6.03;;
6983;SDS011;3532;51.118;7.210;2023-04-24T02:59:51;7.43;;;6.17;;
6983;SDS011;3532;51.118;7.210;2023-04-24T03:02:16;7.83;;;6.47;;
6983;SDS011;3532;51.118;7.210;2023-04-24T03:04:41;7.80;;;6.40;;
6983;SDS011;3532;51.118;7.210;2023-04-24T03:07:10;9.40;;;7.10;;
6983;SDS011;3532;51.118;7.210;2023-04-24T03:09:35;6.87;;;6.17;;
6983;SDS011;3532;51.118;7.210;2023-04-24T03:12:01;9.60;;;5.60;;
6983;SDS011;3532;51.118;7.210;2023-04-24T03:14:26;6.77;;;6.07;;
6983;SDS011;3532;51.118;7.210;2023-04-24T03:16:51;8.83;;;5.63;;
6983;SDS011;3532;51.118;7.210;2023-04-24T03:19:17;6.73;;;6.03;;
6983;SDS011;3532;51.118;7.210;2023-04-24T03:21:42;6.17;;;5.57;;
6983;SDS011;3532;51.118;7.210;2023-04-24T03:24:08;7.40;;;5.60;;
6983;SDS011;3532;51.118;7.210;2023-04-24T03:26:34;7.67;;;6.03;;
6983;SDS011;3532;51.118;7.210;2023-04-24T03:29:00;6.17;;;5.57;;
6983;SDS011;3532;51.118;7.210;2023-04-24T03:31:25;7.47;;;6.27;;
6983;SDS011;3532;51.118;7.210;2023-04-24T03:33:50;8.30;;;5.33;;
6983;SDS011;3532;51.118;7.210;2023-04-24T03:36:16;7.90;;;6.90;;
6983;SDS011;3532;51.118;7.210;2023-04-24T03:38:41;6.23;;;5.63;;
6983;SDS011;3532;51.118;7.210;2023-04-24T03:41:06;6.90;;;6.20;;
6983;SDS011;3532;51.118;7.210;2023-04-24T03:43:32;10.60;;;6.70;;
6983;SDS011;3532;51.118;7.210;2023-04-24T03:45:59;7.97;;;6.30;;
6983;SDS011;3532;51.118;7.210;2023-04-24T03:48:24;10.70;;;6.93;;
6983;SDS011;3532;51.118;7.210;2023-04-24T03:50:50;7.90;;;5.90;;
6983;SDS011;3532;51.118;7.210;2023-04-24T03:53:15;8.07;;;6.77;;
6983;SDS011;3532;51.118;7.210;2023-04-24T03:55:40;12.17;;;7.27;;
6983;SDS011;3532;51.118;7.210;2023-04-24T03:58:06;8.87;;;7.43;;
6983;SDS011;3532;51.118;7.210;2023-04-24T04:00:31;7.57;;;6.77;;
6983;SDS011;3532;51.118;7.210;2023-04-24T04:02:57;7.80;;;7.00;;
6983;SDS011;3532;51.118;7.210;2023-04-24T04:05:22;8.90;;;7.30;;
6983;SDS011;3532;51.118;7.210;2023-04-24T04:07:47;8.43;;;7.67;;
6983;SDS011;3532;51.118;7.210;2023-04-24T04:10:13;8.60;;;7.20;;
6983;SDS011;3532;51.118;7.210;2023-04-24T04:12:38;9.50;;;7.33;;
6983;SDS011;3532;51.118;7.210;2023-04-24T04:15:03;9.30;;;7.60;;
6983;SDS011;3532;51.118;7.210;2023-04-24T04:17:30;9.67;;;7.60;;
6983;SDS011;3532;51.118;7.210;2023-04-24T04:19:56;10.97;;;7.77;;
6983;SDS011;3532;51.118;7.210;2023-04-24T04:22:22;9.63;;;7.27;;
6983;SDS011;3532;51.118;7.210;2023-04-24T04:24:47;8.37;;;7.27;;
6983;SDS011;3532;51.118;7.210;2023-04-24T04:27:12;8.07;;;7.27;;
6983;SDS011;3532;51.118;7.210;2023-04-24T04:29:38;8.80;;;7.10;;
6983;SDS011;3532;51.118;7.210;2023-04-24T04:32:04;9.13;;;8.00;;
6983;SDS011;3532;51.118;7.210;2023-04-24T04:34:30;8.47;;;6.73;;
6983;SDS011;3532;51.118;7.210;2023-04-24T04:36:57;7.33;;;6.53;;
6983;SDS011;3532;51.118;7.210;2023-04-24T04:39:24;8.63;;;6.90;;
6983;SDS011;3532;51.118;7.210;2023-04-24T04:41:49;7.60;;;6.87;;
6983;SDS011;3532;51.118;7.210;2023-04-24T04:44:15;7.77;;;6.93;;
6983;SDS011;3532;51.118;7.210;2023-04-24T04:46:40;10.70;;;7.10;;
6983;SDS011;3532;51.118;7.210;2023-04-24T04:49:06;7.17;;;6.47;;
6983;SDS011;3532;51.118;7.210;2023-04-24T04:51:33;9.87;;;7.17;;
6983;SDS011;3532;51.118;7.210;2023-04-24T04:53:59;8.77;;;6.20;;
6983;SDS011;3532;51.118;7.210;2023-04-24T04:56:24;7.87;;;7.07;;
6983;SDS011;3532;51.118;7.210;2023-04-24T04:58:49;7.10;;;6.37;;
6983;SDS011;3532;51.118;7.210;2023-04-24T05:01:15;8.13;;;6.67;;
6983;SDS011;3532;51.118;7.210;2023-04-24T05:03:40;7.53;;;6.70;;
6983;SDS011;3532;51.118;7.210;2023-04-24T05:06:06;9.53;;;6.30;;
6983;SDS011;3532;51.118;7.210;2023-04-24T05:08:31;7.93;;;6.93;;
6983;SDS011;3532;51.118;7.210;2023-04-24T05:10:57;8.33;;;6.40;;
6983;SDS011;3532;51.118;7.210;2023-04-24T05:13:22;7.60;;;6.03;;
6983;SDS011;3532;51.118;7.210;2023-04-24T05:15:47;7.83;;;7.03;;
6983;SDS011;3532;51.118;7.210;2023-04-24T05:18:12;7.20;;;6.43;;
6983;SDS011;3532;51.118;7.210;2023-04-24T05:20:38;6.47;;;5.47;;
6983;SDS011;3532;51.118;7.210;2023-04-24T05:23:03;7.63;;;5.97;;
6983;SDS011;3532;51.118;7.210;2023-04-24T05:25:28;7.17;;;6.47;;
6983;SDS011;3532;51.118;7.210;2023-04-24T05:27:54;11.23;;;5.87;;
6983;SDS011;3532;51.118;7.210;2023-04-24T05:30:19;6.17;;;5.67;;
6983;SDS011;3532;51.118;7.210;2023-04-24T05:32:45;6.37;;;5.77;;
6983;SDS011;3532;51.118;7.210;2023-04-24T05:35:10;6.57;;;5.97;;
6983;SDS011;3532;51.118;7.210;2023-04-24T05:37:36;6.10;;;5.60;;
6983;SDS011;3532;51.118;7.210;2023-04-24T05:40:01;7.80;;;6.27;;
6983;SDS011;3532;51.118;7.210;2023-04-24T05:42:30;6.73;;;6.03;;
6983;SDS011;3532;51.118;7.210;2023-04-24T05:44:55;7.40;;;5.63;;
6983;SDS011;3532;51.118;7.210;2023-04-24T05:47:20;9.90;;;5.67;;
6983;SDS011;3532;51.118;7.210;2023-04-24T05:49:47;6.70;;;5.93;;
6983;SDS011;3532;51.118;7.210;2023-04-24T05:52:12;9.37;;;6.60;;
6983;SDS011;3532;51.118;7.210;2023-04-24T05:54:37;9.97;;;6.47;;
6983;SDS011;3532;51.118;7.210;2023-04-24T05:57:03;7.87;;;7.17;;
6983;SDS011;3532;51.118;7.210;2023-04-24T05:59:32;9.93;;;7.57;;
6983;SDS011;3532;51.118;7.210;2023-04-24T06:01:57;8.40;;;7.60;;
6983;SDS011;3532;51.118;7.210;2023-04-24T06:04:23;11.57;;;7.47;;
6983;SDS011;3532;51.118;7.210;2023-04-24T06:06:48;8.10;;;7.27;;
6983;SDS011;3532;51.118;7.210;2023-04-24T06:09:15;8.07;;;7.33;;
6983;SDS011;3532;51.118;7.210;2023-04-24T06:11:41;8.47;;;7.57;;
6983;SDS011;3532;51.118;7.210;2023-04-24T06:14:07;8.80;;;7.90;;
6983;SDS011;3532;51.118;7.210;2023-04-24T06:16:32;10.20;;;7.97;;
6983;SDS011;3532;51.118;7.210;2023-04-24T06:18:58;9.67;;;8.67;;
6983;SDS011;3532;51.118;7.210;2023-04-24T06:21:23;8.80;;;7.90;;
6983;SDS011;3532;51.118;7.210;2023-04-24T06:23:48;8.70;;;7.90;;
6983;SDS011;3532;51.118;7.210;2023-04-24T06:26:14;10.33;;;7.90;;
6983;SDS011;3532;51.118;7.210;2023-04-24T06:28:40;8.77;;;7.97;;
6983;SDS011;3532;51.118;7.210;2023-04-24T06:31:05;8.67;;;7.80;;
6983;SDS011;3532;51.118;7.210;2023-04-24T06:33:30;7.80;;;7.03;;
6983;SDS011;3532;51.118;7.210;2023-04-24T06:35:56;9.30;;;7.63;;
6983;SDS011;3532;51.118;7.210;2023-04-24T06:38:21;13.33;;;8.03;;
6983;SDS011;3532;51.118;7.210;2023-04-24T06:40:46;8.27;;;7.47;;
6983;SDS011;3532;51.118;7.210;2023-04-24T06:43:11;9.63;;;8.63;;
6983;SDS011;3532;51.118;7.210;2023-04-24T06:45:37;9.37;;;8.00;;
6983;SDS011;3532;51.118;7.210;2023-04-24T06:48:04;9.23;;;8.17;;
6983;SDS011;3532;51.118;7.210;2023-04-24T06:50:29;9.60;;;8.00;;
6983;SDS011;3532;51.118;7.210;2023-04-24T06:52:55;9.30;;;8.40;;
6983;SDS011;3532;51.118;7.210;2023-04-24T06:55:21;9.27;;;7.63;;
6983;SDS011;3532;51.118;7.210;2023-04-24T06:57:46;8.63;;;7.70;;
6983;SDS011;3532;51.118;7.210;2023-04-24T07:00:11;9.13;;;7.97;;
6983;SDS011;3532;51.118;7.210;2023-04-24T07:02:37;9.73;;;7.60;;
6983;SDS011;3532;51.118;7.210;2023-04-24T07:05:03;8.53;;;7.63;;
6983;SDS011;3532;51.118;7.210;2023-04-24T07:07:29;10.60;;;8.07;;
6983;SDS011;3532;51.118;7.210;2023-04-24T07:09:55;8.70;;;7.33;;
6983;SDS011;3532;51.118;7.210;2023-04-24T07:12:21;8.97;;;8.07;;
6983;SDS011;3532;51.118;7.210;2023-04-24T07:14:47;8.07;;;7.27;;
6983;SDS011;3532;51.118;7.210;2023-04-24T07:17:12;8.20;;;6.40;;
6983;SDS011;3532;51.118;7.210;2023-04-24T07:19:38;7.07;;;5.60;;
6983;SDS011;3532;51.118;7.210;2023-04-24T07:22:03;6.10;;;5.50;;
6983;SDS011;3532;51.118;7.210;2023-04-24T07:24:29;6.97;;;4.73;;
6983;SDS011;3532;51.118;7.210;2023-04-24T07:26:57;3.90;;;3.50;;
6983;SDS011;3532;51.118;7.210;2023-04-24T07:29:22;3.60;;;3.30;;
6983;SDS011;3532;51.118;7.210;2023-04-24T07:31:47;4.10;;;3.30;;
6983;SDS011;3532;51.118;7.210;2023-04-24T07:34:13;3.77;;;3.17;;
6983;SDS011;3532;51.118;7.210;2023-04-24T07:36:38;3.00;;;2.80;;
6983;SDS011;3532;51.118;7.210;2023-04-24T07:39:04;3.60;;;3.30;;
6983;SDS011;3532;51.118;7.210;2023-04-24T07:41:30;3.40;;;3.10;;
6983;SDS011;3532;51.118;7.210;2023-04-24T07:43:56;3.60;;;3.07;;
6983;SDS011;3532;51.118;7.210;2023-04-24T07:46:21;6.50;;;3.70;;
6983;SDS011;3532;51.118;7.210;2023-04-24T07:48:48;3.70;;;2.70;;
6983;SDS011;3532;51.118;7.210;2023-04-24T07:51:14;3.90;;;3.27;;
6983;SDS011;3532;51.118;7.210;2023-04-24T07:53:40;6.07;;;3.20;;
6983;SDS011;3532;51.118;7.210;2023-04-24T07:56:05;5.57;;;3.43;;
6983;SDS011;3532;51.118;7.210;2023-04-24T07:58:31;3.47;;;3.17;;
6983;SDS011;3532;51.118;7.210;2023-04-24T08:00:56;5.10;;;3.63;;
6983;SDS011;3532;51.118;7.210;2023-04-24T08:03:21;3.87;;;3.37;;
6983;SDS011;3532;51.118;7.210;2023-04-24T08:05:47;3.33;;;3.10;;
6983;SDS011;3532;51.118;7.210;2023-04-24T08:08:12;3.30;;;2.63;;
6983;SDS011;3532;51.118;7.210;2023-04-24T08:10:38;2.23;;;2.07;;
6983;SDS011;3532;51.118;7.210;2023-04-24T08:13:03;4.60;;;2.40;;
6983;SDS011;3532;51.118;7.210;2023-04-24T08:15:28;2.57;;;2.37;;
6983;SDS011;3532;51.118;7.210;2023-04-24T08:17:54;5.73;;;3.10;;
6983;SDS011;3532;51.118;7.210;2023-04-24T08:20:19;1.90;;;1.80;;
6983;SDS011;3532;51.118;7.210;2023-04-24T08:22:44;1.83;;;1.60;;
6983;SDS011;3532;51.118;7.210;2023-04-24T08:25:12;1.63;;;1.53;;
6983;SDS011;3532;51.118;7.210;2023-04-24T08:27:37;3.07;;;1.77;;
6983;SDS011;3532;51.118;7.210;2023-04-24T08:30:04;1.60;;;1.50;;
6983;SDS011;3532;51.118;7.210;2023-04-24T08:32:30;1.60;;;1.50;;
6983;SDS011;3532;51.118;7.210;2023-04-24T08:34:55;1.70;;;1.60;;
6983;SDS011;3532;51.118;7.210;2023-04-24T08:37:22;2.03;;;1.70;;
6983;SDS011;3532;51.118;7.210;2023-04-24T08:39:48;2.03;;;1.93;;
6983;SDS011;3532;51.118;7.210;2023-04-24T08:42:17;2.00;;;1.80;;
6983;SDS011;3532;51.118;7.210;2023-04-24T08:44:43;2.10;;;2.00;;
6983;SDS011;3532;51.118;7.210;2023-04-24T08:47:09;3.20;;;2.63;;
6983;SDS011;3532;51.118;7.210;2023-04-24T08:49:36;2.87;;;2.53;;
6983;SDS011;3532;51.118;7.210;2023-04-24T08:52:01;3.00;;;2.80;;
6983;SDS011;3532;51.118;7.210;2023-04-24T08:54:28;3.63;;;3.17;;
6983;SDS011;3532;51.118;7.210;2023-04-24T08:56:54;3.30;;;3.00;;
6983;SDS011;3532;51.118;7.210;2023-04-24T08:59:25;3.90;;;3.20;;
6983;SDS011;3532;51.118;7.210;2023-04-24T09:01:51;3.27;;;2.93;;
6983;SDS011;3532;51.118;7.210;2023-04-24T09:04:16;3.73;;;3.43;;
6983;SDS011;3532;51.118;7.210;2023-04-24T09:06:44;4.43;;;3.50;;
6983;SDS011;3532;51.118;7.210;2023-04-24T09:09:10;4.03;;;3.73;;
6983;SDS011;3532;51.118;7.210;2023-04-24T09:11:36;4.27;;;3.77;;
6983;SDS011;3532;51.118;7.210;2023-04-24T09:14:02;3.87;;;3.50;;
6983;SDS011;3532;51.118;7.210;2023-04-24T09:16:27;3.40;;;3.10;;
6983;SDS011;3532;51.118;7.210;2023-04-24T09:18:53;4.40;;;3.47;;
6983;SDS011;3532;51.118;7.210;2023-04-24T09:21:20;4.60;;;3.60;;
6983;SDS011;3532;51.118;7.210;2023-04-24T09:23:46;4.80;;;3.30;;
6983;SDS011;3532;51.118;7.210;2023-04-24T09:26:11;3.50;;;3.20;;
6983;SDS011;3532;51.118;7.210;2023-04-24T09:28:39;3.27;;;3.00;;
6983;SDS011;3532;51.118;7.210;2023-04-24T09:31:23;3.07;;;2.80;;
6983;SDS011;3532;51.118;7.210;2023-04-24T09:34:03;5.23;;;2.57;;
6983;SDS011;3532;51.118;7.210;2023-04-24T09:36:34;4.77;;;2.50;;
6983;SDS011;3532;51.118;7.210;2023-04-24T09:39:03;4.43;;;3.27;;
6983;SDS011;3532;51.118;7.210;2023-04-24T09:41:47;3.80;;;3.40;;
6983;SDS011;3532;51.118;7.210;2023-04-24T09:44:15;3.37;;;2.90;;
6983;SDS011;3532;51.118;7.210;2023-04-24T09:46:49;3.93;;;2.97;;
6983;SDS011;3532;51.118;7.210;2023-04-24T09:49:16;4.03;;;2.97;;
6983;SDS011;3532;51.118;7.210;2023-04-24T09:51:46;6.77;;;3.57;;
6983;SDS011;3532;51.118;7.210;2023-04-24T09:54:15;5.00;;;4.43;;
6983;SDS011;3532;51.118;7.210;2023-04-24T09:56:46;4.83;;;4.33;;
6983;SDS011;3532;51.118;7.210;2023-04-24T09:59:12;6.37;;;4.70;;
6983;SDS011;3532;51.118;7.210;2023-04-24T10:01:38;4.47;;;4.10;;
6983;SDS011;3532;51.118;7.210;2023-04-24T10:04:14;6.37;;;4.30;;
6983;SDS011;3532;51.118;7.210;2023-04-24T10:06:43;5.13;;;4.37;;
6983;SDS011;3532;51.118;7.210;2023-04-24T10:09:09;6.70;;;5.27;;
6983;SDS011;3532;51.118;7.210;2023-04-24T10:11:37;5.53;;;4.73;;
6983;SDS011;3532;51.118;7.210;2023-04-24T10:14:02;7.10;;;4.50;;
6983;SDS011;3532;51.118;7.210;2023-04-24T10:16:28;6.63;;;4.10;;
6983;SDS011;3532;51.118;7.210;2023-04-24T10:18:55;4.70;;;4.30;;
6983;SDS011;3532;51.118;7.210;2023-04-24T10:21:20;4.73;;;4.07;;
6983;SDS011;3532;51.118;7.210;2023-04-24T10:23:46;5.17;;;4.13;;
6983;SDS011;3532;51.118;7.210;2023-04-24T10:26:13;4.90;;;4.30;;
6983;SDS011;3532;51.118;7.210;2023-04-24T10:28:46;4.97;;;4.47;;
6983;SDS011;3532;51.118;7.210;2023-04-24T10:31:12;7.97;;;5.10;;
6983;SDS011;3532;51.118;7.210;2023-04-24T10:33:38;6.20;;;5.17;;
6983;SDS011;3532;51.118;7.210;2023-04-24T10:36:06;7.00;;;6.30;;
6983;SDS011;3532;51.118;7.210;2023-04-24T10:38:33;9.33;;;6.30;;
6983;SDS011;3532;51.118;7.210;2023-04-24T10:41:08;6.50;;;5.77;;
6983;SDS011;3532;51.118;7.210;2023-04-24T10:43:35;7.40;;;5.80;;
6983;SDS011;3532;51.118;7.210;2023-04-24T10:46:01;7.27;;;6.63;;
6983;SDS011;3532;51.118;7.210;2023-04-24T10:48:28;8.93;;;7.80;;
6983;SDS011;3532;51.118;7.210;2023-04-24T10:50:53;7.47;;;6.77;;
6983;SDS011;3532;51.118;7.210;2023-04-24T10:53:19;11.37;;;7.13;;
6983;SDS011;3532;51.118;7.210;2023-04-24T10:56:04;12.47;;;8.17;;
6983;SDS011;3532;51.118;7.210;2023-04-24T10:58:44;12.30;;;7.73;;
6983;SDS011;3532;51.118;7.210;2023-04-24T11:01:27;10.30;;;7.40;;
6983;SDS011;3532;51.118;7.210;2023-04-24T11:03:57;9.30;;;7.43;;
6983;SDS011;3532;51.118;7.210;2023-04-24T11:06:34;10.87;;;7.40;;
6983;SDS011;3532;51.118;7.210;2023-04-24T11:09:04;9.83;;;7.37;;
6983;SDS011;3532;51.118;7.210;2023-04-24T11:11:31;13.50;;;7.73;;
6983;SDS011;3532;51.118;7.210;2023-04-24T11:21:45;7.00;;;6.33;;
6983;SDS011;3532;51.118;7.210;2023-04-24T11:24:21;10.90;;;6.53;;
6983;SDS011;3532;51.118;7.210;2023-04-24T11:26:53;9.57;;;6.37;;
6983;SDS011;3532;51.118;7.210;2023-04-24T11:29:19;8.83;;;5.90;;
6983;SDS011;3532;51.118;7.210;2023-04-24T11:31:45;11.20;;;6.93;;
6983;SDS011;3532;51.118;7.210;2023-04-24T11:34:16;7.20;;;5.30;;
6983;SDS011;3532;51.118;7.210;2023-04-24T11:36:42;9.67;;;5.17;;
6983;SDS011;3532;51.118;7.210;2023-04-24T11:39:09;10.70;;;5.60;;
6983;SDS011;3532;51.118;7.210;2023-04-24T11:41:36;13.03;;;6.47;;
6983;SDS011;3532;51.118;7.210;2023-04-24T11:44:02;12.70;;;6.33;;
6983;SDS011;3532;51.118;7.210;2023-04-24T11:46:28;12.87;;;5.90;;
6983;SDS011;3532;51.118;7.210;2023-04-24T11:48:55;11.53;;;6.60;;
6983;SDS011;3532;51.118;7.210;2023-04-24T11:51:22;12.23;;;6.73;;
6983;SDS011;3532;51.118;7.210;2023-04-24T11:53:48;13.60;;;6.80;;
6983;SDS011;3532;51.118;7.210;2023-04-24T11:56:16;10.83;;;5.67;;
6983;SDS011;3532;51.118;7.210;2023-04-24T11:58:44;9.27;;;6.00;;
6983;SDS011;3532;51.118;7.210;2023-04-24T12:01:09;12.00;;;5.80;;
6983;SDS011;3532;51.118;7.210;2023-04-24T12:03:34;11.13;;;5.30;;
6983;SDS011;3532;51.118;7.210;2023-04-24T12:06:09;12.47;;;5.83;;
6983;SDS011;3532;51.118;7.210;2023-04-24T12:08:36;15.17;;;6.00;;
6983;SDS011;3532;51.118;7.210;2023-04-24T12:11:02;10.77;;;5.27;;
6983;SDS011;3532;51.118;7.210;2023-04-24T12:13:29;13.60;;;5.97;;
6983;SDS011;3532;51.118;7.210;2023-04-24T12:15:56;11.17;;;6.70;;
6983;SDS011;3532;51.118;7.210;2023-04-24T12:18:22;8.73;;;5.83;;
6983;SDS011;3532;51.118;7.210;2023-04-24T12:20:48;13.57;;;5.60;;
6983;SDS011;3532;51.118;7.210;2023-04-24T12:23:13;8.33;;;5.23;;
6983;SDS011;3532;51.118;7.210;2023-04-24T12:25:39;9.53;;;5.17;;
6983;SDS011;3532;51.118;7.210;2023-04-24T12:30:31;9.47;;;5.70;;
6983;SDS011;3532;51.118;7.210;2023-04-24T12:32:58;13.43;;;6.77;;
6983;SDS011;3532;51.118;7.210;2023-04-24T12:35:25;9.13;;;5.13;;
6983;SDS011;3532;51.118;7.210;2023-04-24T12:37:52;11.77;;;5.57;;
6983;SDS011;3532;51.118;7.210;2023-04-24T12:40:18;8.37;;;5.37;;
6983;SDS011;3532;51.118;7.210;2023-04-24T12:42:47;7.30;;;5.13;;
6983;SDS011;3532;51.118;7.210;2023-04-24T12:45:15;14.47;;;5.70;;
6983;SDS011;3532;51.118;7.210;2023-04-24T12:47:42;15.03;;;6.03;;
6983;SDS011;3532;51.118;7.210;2023-04-24T12:50:09;11.90;;;6.17;;
6983;SDS011;3532;51.118;7.210;2023-04-24T12:52:36;14.93;;;5.67;;
6983;SDS011;3532;51.118;7.210;2023-04-24T12:55:02;11.50;;;6.33;;
6983;SDS011;3532;51.118;7.210;2023-04-24T12:57:28;7.97;;;4.87;;
6983;SDS011;3532;51.118;7.210;2023-04-24T12:59:55;10.90;;;5.10;;
6983;SDS011;3532;51.118;7.210;2023-04-24T13:02:21;10.90;;;5.83;;
6983;SDS011;3532;51.118;7.210;2023-04-24T13:04:47;10.97;;;6.30;;
6983;SDS011;3532;51.118;7.210;2023-04-24T13:07:13;9.47;;;4.73;;
6983;SDS011;3532;51.118;7.210;2023-04-24T13:09:39;9.43;;;5.97;;
6983;SDS011;3532;51.118;7.210;2023-04-24T13:12:05;9.67;;;5.13;;
6983;SDS011;3532;51.118;7.210;2023-04-24T13:14:31;7.23;;;4.70;;
6983;SDS011;3532;51.118;7.210;2023-04-24T13:16:57;8.53;;;4.37;;
6983;SDS011;3532;51.118;7.210;2023-04-24T13:19:24;7.00;;;3.97;;
6983;SDS011;3532;51.118;7.210;2023-04-24T13:21:50;10.60;;;4.07;;
6983;SDS011;3532;51.118;7.210;2023-04-24T13:24:15;6.67;;;4.70;;
6983;SDS011;3532;51.118;7.210;2023-04-24T13:26:41;10.57;;;4.20;;
6983;SDS011;3532;51.118;7.210;2023-04-24T13:29:06;7.57;;;3.53;;
6983;SDS011;3532;51.118;7.210;2023-04-24T13:31:31;10.43;;;3.83;;
6983;SDS011;3532;51.118;7.210;2023-04-24T13:33:57;8.60;;;3.70;;
6983;SDS011;3532;51.118;7.210;2023-04-24T13:36:22;6.73;;;3.60;;
6983;SDS011;3532;51.118;7.210;2023-04-24T13:38:47;6.10;;;3.50;;
6983;SDS011;3532;51.118;7.210;2023-04-24T13:41:13;2.97;;;2.70;;
6983;SDS011;3532;51.118;7.210;2023-04-24T13:43:38;3.37;;;3.00;;
6983;SDS011;3532;51.118;7.210;2023-04-24T13:46:03;3.93;;;3.20;;
6983;SDS011;3532;51.118;7.210;2023-04-24T13:48:29;5.57;;;2.93;;
6983;SDS011;3532;51.118;7.210;2023-04-24T13:50:55;6.37;;;3.60;;
6983;SDS011;3532;51.118;7.210;2023-04-24T13:53:20;6.60;;;3.50;;
6983;SDS011;3532;51.118;7.210;2023-04-24T13:55:46;6.20;;;3.47;;
6983;SDS011;3532;51.118;7.210;2023-04-24T13:58:11;6.57;;;3.40;;
6983;SDS011;3532;51.118;7.210;2023-04-24T14:00:36;7.67;;;3.63;;
6983;SDS011;3532;51.118;7.210;2023-04-24T14:03:02;4.33;;;3.80;;
6983;SDS011;3532;51.118;7.210;2023-04-24T14:05:27;5.10;;;3.40;;
6983;SDS011;3532;51.118;7.210;2023-04-24T14:07:52;7.20;;;3.90;;
6983;SDS011;3532;51.118;7.210;2023-04-24T14:10:17;7.63;;;4.07;;
6983;SDS011;3532;51.118;7.210;2023-04-24T14:12:43;5.83;;;4.00;;
6983;SDS011;3532;51.118;7.210;2023-04-24T14:15:08;6.90;;;3.43;;
6983;SDS011;3532;51.118;7.210;2023-04-24T14:17:34;4.90;;;3.63;;
6983;SDS011;3532;51.118;7.210;2023-04-24T14:20:00;4.90;;;3.47;;
6983;SDS011;3532;51.118;7.210;2023-04-24T14:22:25;5.47;;;3.70;;
6983;SDS011;3532;51.118;7.210;2023-04-24T14:24:51;4.27;;;3.50;;
6983;SDS011;3532;51.118;7.210;2023-04-24T14:27:16;5.13;;;3.73;;
6983;SDS011;3532;51.118;7.210;2023-04-24T14:29:41;7.47;;;3.87;;
6983;SDS011;3532;51.118;7.210;2023-04-24T14:32:07;4.97;;;3.97;;
6983;SDS011;3532;51.118;7.210;2023-04-24T14:34:33;4.20;;;3.30;;
6983;SDS011;3532;51.118;7.210;2023-04-24T14:36:59;8.03;;;4.10;;
6983;SDS011;3532;51.118;7.210;2023-04-24T14:39:24;4.87;;;3.43;;
6983;SDS011;3532;51.118;7.210;2023-04-24T14:41:50;4.30;;;3.30;;
6983;SDS011;3532;51.118;7.210;2023-04-24T14:44:15;5.97;;;3.73;;
6983;SDS011;3532;51.118;7.210;2023-04-24T14:46:41;5.93;;;3.23;;
6983;SDS011;3532;51.118;7.210;2023-04-24T14:49:06;3.30;;;3.00;;
6983;SDS011;3532;51.118;7.210;2023-04-24T14:51:34;4.83;;;3.33;;
6983;SDS011;3532;51.118;7.210;2023-04-24T14:54:00;3.87;;;3.40;;
6983;SDS011;3532;51.118;7.210;2023-04-24T14:56:25;6.10;;;3.07;;
6983;SDS011;3532;51.118;7.210;2023-04-24T14:58:50;4.67;;;2.73;;
6983;SDS011;3532;51.118;7.210;2023-04-24T15:01:16;4.00;;;3.33;;
6983;SDS011;3532;51.118;7.210;2023-04-24T15:03:41;4.03;;;3.53;;
6983;SDS011;3532;51.118;7.210;2023-04-24T15:06:06;4.10;;;2.93;;
6983;SDS011;3532;51.118;7.210;2023-04-24T15:08:32;10.63;;;3.47;;
6983;SDS011;3532;51.118;7.210;2023-04-24T15:10:57;4.57;;;2.50;;
6983;SDS011;3532;51.118;7.210;2023-04-24T15:13:23;3.93;;;2.97;;
6983;SDS011;3532;51.118;7.210;2023-04-24T15:15:48;7.27;;;3.47;;